This is the latest recevied weather packets stored in our database for station/object W6UA-13. If no packets are shown the sender has not sent any weather packets the latest 10 day(s).
| Time | Temp. | Humidity | Pressure | Rain* | Wind** | Luminosity | Snow |
|---|---|---|---|---|---|---|---|
| 1777618189 | 11.11° C | 85% | 1014.1 hPa | 0 mm | - | 0 W/m² | - |
| 1777617289 | 11.67° C | 85% | 1014.1 hPa | 0 mm | - | 0 W/m² | - |
| 1777616389 | 11.67° C | 84% | 1014.1 hPa | 0 mm | - | 0 W/m² | - |
| 1777615489 | 11.67° C | 84% | 1014.1 hPa | 0 mm | - | 0 W/m² | - |
| 1777614589 | 11.67° C | 84% | 1013.9 hPa | 0 mm | - | 0 W/m² | - |
| 1777613689 | 11.67° C | 84% | 1014 hPa | 0 mm | - | 0 W/m² | - |
| 1777612789 | 12.22° C | 84% | 1013.9 hPa | 0 mm | - | 0 W/m² | - |
| 1777611889 | 12.22° C | 83% | 1013.8 hPa | 0 mm | - | 0 W/m² | - |
| 1777610989 | 12.22° C | 83% | 1013.9 hPa | 0 mm | - | 0 W/m² | - |
| 1777610089 | 12.78° C | 82% | 1014 hPa | 0 mm | - | 0 W/m² | - |
| 1777609189 | 12.78° C | 82% | 1013.9 hPa | 0 mm | - | 0 W/m² | - |
| 1777608289 | 12.78° C | 81% | 1013.9 hPa | 0 mm | - | 0 W/m² | - |
| 1777607389 | 12.78° C | 80% | 1013.8 hPa | 0 mm | - | 0 W/m² | - |
| 1777606489 | 13.33° C | 79% | 1013.5 hPa | 0 mm | - | 0 W/m² | - |
| 1777605589 | 13.33° C | 78% | 1013.3 hPa | 0 mm | - | 0 W/m² | - |
| 1777604689 | 13.89° C | 76% | 1013.3 hPa | 0 mm | - | 0 W/m² | - |
| 1777603789 | 15° C | 73% | 1013.2 hPa | 0 mm | - | 0 W/m² | - |
| 1777602889 | 15.56° C | 71% | 1013 hPa | 0 mm | - | 12 W/m² | - |
| 1777601989 | 16.11° C | 70% | 1012.9 hPa | 0 mm | - | 23 W/m² | - |
| 1777601089 | 17.22° C | 67% | 1013 hPa | 0 mm | - | 62 W/m² | - |
| 1777600189 | 17.78° C | 64% | 1013 hPa | 0 mm | - | 121 W/m² | - |
| 1777599289 | 18.33° C | 63% | 1013.2 hPa | 0 mm | - | 167 W/m² | - |
| 1777598390 | 18.89° C | 61% | 1013.2 hPa | 0 mm | - | 190 W/m² | - |
| 1777597489 | 19.44° C | 60% | 1012.8 hPa | 0 mm | - | 186 W/m² | - |
| 1777596589 | 20.56° C | 58% | 1013.1 hPa | 0 mm | - | 267 W/m² | - |
* Rain latest hour (hover to see other rain measurements)
** Current wind speed in m/s (hover to see current wind gust speed)